createdAt,value
2022-12-09T00:01:24.310Z,-1.30
2022-12-09T00:03:51.231Z,-1.30
2022-12-09T00:06:25.139Z,-1.30
2022-12-09T00:08:53.241Z,-1.30
2022-12-09T00:11:21.547Z,-1.30
2022-12-09T00:13:57.012Z,-1.20
2022-12-09T00:16:26.714Z,-1.10
2022-12-09T00:18:53.634Z,-1.10
2022-12-09T00:21:27.641Z,-1.10
2022-12-09T00:23:57.034Z,-1.10
2022-12-09T00:26:25.400Z,-1.10
2022-12-09T00:28:52.866Z,-1.10
2022-12-09T00:31:24.762Z,-1.10
2022-12-09T00:33:52.248Z,-1.10
2022-12-09T00:36:22.648Z,-1.20
2022-12-09T00:38:54.089Z,-1.20
2022-12-09T00:41:21.146Z,-1.20
2022-12-09T00:43:48.442Z,-1.20
2022-12-09T00:46:18.414Z,-1.20
2022-12-09T00:48:48.206Z,-1.20
2022-12-09T00:51:18.105Z,-1.30
2022-12-09T00:53:45.369Z,-1.30
2022-12-09T00:56:12.185Z,-1.40
2022-12-09T00:58:38.986Z,-1.40
2022-12-09T01:01:06.063Z,-1.40
2022-12-09T01:03:35.344Z,-1.40
2022-12-09T01:06:08.267Z,-1.40
2022-12-09T01:08:38.488Z,-1.40
2022-12-09T01:11:16.314Z,-1.40
2022-12-09T01:13:43.069Z,-1.30
2022-12-09T01:16:18.036Z,-1.40
2022-12-09T01:18:47.933Z,-1.50
2022-12-09T01:21:14.736Z,-1.50
2022-12-09T01:23:41.861Z,-1.60
2022-12-09T01:26:09.108Z,-1.60
2022-12-09T01:28:37.710Z,-1.60
2022-12-09T01:31:09.641Z,-1.70
2022-12-09T01:33:37.076Z,-1.80
2022-12-09T01:36:10.726Z,-1.90
2022-12-09T01:38:38.067Z,-1.90
2022-12-09T01:41:09.453Z,-1.90
2022-12-09T01:43:38.284Z,-1.90
2022-12-09T01:46:05.258Z,-2.00
2022-12-09T01:48:44.731Z,-2.00
2022-12-09T01:51:15.680Z,-1.90
2022-12-09T01:53:49.048Z,-2.00
2022-12-09T01:56:24.268Z,-2.00
2022-12-09T01:58:57.210Z,-2.10
2022-12-09T02:01:29.257Z,-2.00
2022-12-09T02:03:56.382Z,-2.00
2022-12-09T02:06:25.786Z,-2.00
2022-12-09T02:08:53.319Z,-2.00
2022-12-09T02:11:50.640Z,-2.00
2022-12-09T02:14:21.182Z,-2.10
2022-12-09T02:17:09.311Z,-2.10
2022-12-09T02:19:44.613Z,-2.10
2022-12-09T02:22:19.203Z,-2.10
2022-12-09T02:25:01.433Z,-2.10
2022-12-09T02:27:44.512Z,-2.10
2022-12-09T02:30:23.868Z,-2.20
2022-12-09T02:33:17.417Z,-2.20
2022-12-09T02:35:52.768Z,-2.20
2022-12-09T02:38:28.843Z,-2.30
2022-12-09T02:41:21.867Z,-2.30
2022-12-09T02:43:57.551Z,-2.30
2022-12-09T02:46:28.415Z,-2.30
2022-12-09T02:48:58.530Z,-2.30
2022-12-09T02:51:32.186Z,-2.30
2022-12-09T02:54:10.005Z,-2.10
2022-12-09T02:56:38.520Z,-2.10
2022-12-09T02:59:05.596Z,-2.20
2022-12-09T03:01:45.903Z,-2.20
2022-12-09T03:04:27.087Z,-2.30
2022-12-09T03:06:56.620Z,-2.40
2022-12-09T03:09:33.888Z,-2.30
2022-12-09T03:12:08.848Z,-2.10
2022-12-09T03:14:45.406Z,-2.10
2022-12-09T03:17:19.730Z,-2.20
2022-12-09T03:19:49.966Z,-2.30
2022-12-09T03:22:26.030Z,-2.40
2022-12-09T03:25:08.166Z,-2.30
2022-12-09T03:27:42.332Z,-2.40
2022-12-09T03:30:11.134Z,-2.40
2022-12-09T03:32:39.768Z,-2.40
2022-12-09T03:35:13.803Z,-2.40
2022-12-09T03:37:42.104Z,-2.40
2022-12-09T03:40:14.329Z,-2.50
2022-12-09T03:42:53.202Z,-2.60
2022-12-09T03:45:24.854Z,-2.60
2022-12-09T03:47:52.382Z,-2.70
2022-12-09T03:50:21.883Z,-2.70
2022-12-09T03:52:54.001Z,-2.60
2022-12-09T03:55:32.739Z,-2.50
2022-12-09T03:58:01.450Z,-2.40
2022-12-09T04:00:28.944Z,-2.30
2022-12-09T04:02:55.734Z,-2.30
2022-12-09T04:05:25.232Z,-2.30
2022-12-09T04:07:52.459Z,-2.20
2022-12-09T04:10:21.748Z,-2.20
2022-12-09T04:12:48.397Z,-2.10
2022-12-09T04:15:15.269Z,-2.00
2022-12-09T04:17:42.351Z,-2.00
2022-12-09T04:20:09.965Z,-2.10
2022-12-09T04:22:36.989Z,-2.10
2022-12-09T04:25:03.767Z,-2.10
2022-12-09T04:27:30.787Z,-2.10
2022-12-09T04:29:57.566Z,-2.10
2022-12-09T04:32:24.597Z,-2.10
2022-12-09T04:34:51.442Z,-2.00
2022-12-09T04:37:18.685Z,-2.10
2022-12-09T04:39:45.412Z,-2.10
2022-12-09T04:42:12.201Z,-2.10
2022-12-09T04:44:39.247Z,-2.10
2022-12-09T04:47:06.262Z,-2.10
2022-12-09T04:49:33.564Z,-2.00
2022-12-09T04:52:00.743Z,-2.00
2022-12-09T04:54:30.333Z,-2.10
2022-12-09T04:56:59.809Z,-2.10
2022-12-09T04:59:30.247Z,-2.10
2022-12-09T05:01:57.266Z,-2.10
2022-12-09T05:04:24.232Z,-2.10
2022-12-09T05:06:54.231Z,-2.20
2022-12-09T05:09:21.757Z,-2.10
2022-12-09T05:11:48.553Z,-2.10
2022-12-09T05:14:15.460Z,-2.10
2022-12-09T05:16:45.436Z,-2.10
2022-12-09T05:19:14.626Z,-2.10
2022-12-09T05:21:44.088Z,-2.00
2022-12-09T05:24:13.679Z,-2.00
2022-12-09T05:26:41.150Z,-1.90
2022-12-09T05:29:08.147Z,-1.80
2022-12-09T05:31:35.036Z,-1.80
2022-12-09T05:34:04.809Z,-1.80
2022-12-09T05:36:34.361Z,-1.70
2022-12-09T05:39:03.833Z,-1.80
2022-12-09T05:41:30.825Z,-1.80
2022-12-09T05:44:02.846Z,-1.80
2022-12-09T05:46:32.183Z,-1.80
2022-12-09T05:49:01.305Z,-1.80
2022-12-09T05:51:29.281Z,-1.80
2022-12-09T05:53:58.157Z,-1.80
2022-12-09T05:56:25.495Z,-1.90
2022-12-09T05:58:53.534Z,-1.80
2022-12-09T06:01:23.751Z,-1.80
2022-12-09T06:03:52.214Z,-1.80
2022-12-09T06:06:20.936Z,-1.80
2022-12-09T06:08:50.848Z,-1.70
2022-12-09T06:11:24.812Z,-1.70
2022-12-09T06:13:52.522Z,-1.70
2022-12-09T06:16:23.315Z,-1.70
2022-12-09T06:18:51.392Z,-1.70
2022-12-09T06:21:22.939Z,-1.60
2022-12-09T06:23:53.636Z,-1.60
2022-12-09T06:26:23.249Z,-1.50
2022-12-09T06:28:50.992Z,-1.50
2022-12-09T06:31:18.331Z,-1.50
2022-12-09T06:33:55.391Z,-1.60
2022-12-09T06:36:24.233Z,-1.60
2022-12-09T06:38:53.366Z,-1.50
2022-12-09T06:44:21.721Z,-1.50
2022-12-09T06:46:50.599Z,-1.50
2022-12-09T06:49:18.464Z,-1.50
2022-12-09T06:51:50.601Z,-1.50
2022-12-09T06:54:17.486Z,-1.50
2022-12-09T06:56:44.875Z,-1.40
2022-12-09T06:59:11.987Z,-1.50
2022-12-09T07:01:39.099Z,-1.40
2022-12-09T07:04:07.202Z,-1.40
2022-12-09T07:06:37.416Z,-1.40
2022-12-09T07:09:16.926Z,-1.40
2022-12-09T07:11:47.980Z,-1.30
2022-12-09T07:14:16.779Z,-1.30
2022-12-09T07:16:46.955Z,-1.30
2022-12-09T07:19:21.291Z,-1.20
2022-12-09T07:21:49.623Z,-1.20
2022-12-09T07:24:18.484Z,-1.20
2022-12-09T07:26:45.806Z,-1.20
2022-12-09T07:29:12.866Z,-1.20
2022-12-09T07:31:39.747Z,-1.20
2022-12-09T07:34:07.007Z,-1.00
2022-12-09T07:36:35.167Z,-1.00
2022-12-09T07:39:05.576Z,-0.90
2022-12-09T07:41:32.541Z,-0.90
2022-12-09T07:43:59.805Z,-0.90
2022-12-09T07:46:29.848Z,-0.80
2022-12-09T07:48:59.535Z,-0.80
2022-12-09T07:51:26.802Z,-0.70
2022-12-09T07:53:54.182Z,-0.60
2022-12-09T07:56:22.633Z,-0.50
2022-12-09T07:58:53.353Z,-0.50
2022-12-09T08:01:28.630Z,-0.50
2022-12-09T08:03:58.611Z,-0.40
2022-12-09T08:06:30.330Z,-0.40
2022-12-09T08:09:02.446Z,-0.30
2022-12-09T08:11:33.913Z,-0.30
2022-12-09T08:14:10.879Z,-0.20
2022-12-09T08:16:42.627Z,-0.10
2022-12-09T08:19:11.219Z,0.00
2022-12-09T08:21:40.719Z,0.00
2022-12-09T08:24:11.141Z,0.10
2022-12-09T08:26:39.442Z,0.10
2022-12-09T08:29:14.363Z,0.20
2022-12-09T08:31:43.834Z,0.30
2022-12-09T08:34:14.174Z,0.40
2022-12-09T08:36:44.349Z,0.40
2022-12-09T08:39:13.172Z,0.50
2022-12-09T08:41:41.004Z,0.60
2022-12-09T08:44:10.390Z,0.60
2022-12-09T08:46:41.906Z,0.60
2022-12-09T08:49:30.596Z,0.60
2022-12-09T08:51:59.715Z,0.70
2022-12-09T08:54:26.867Z,0.80
2022-12-09T08:57:00.410Z,0.80
2022-12-09T08:59:57.141Z,0.90
2022-12-09T09:02:24.593Z,0.90
2022-12-09T09:05:04.025Z,0.90
2022-12-09T09:07:34.182Z,0.80
2022-12-09T09:10:01.866Z,0.80
2022-12-09T09:12:32.910Z,0.90
2022-12-09T09:15:03.528Z,1.00
2022-12-09T09:17:30.727Z,1.00
2022-12-09T09:20:00.152Z,1.00
2022-12-09T09:22:27.931Z,1.10
2022-12-09T09:24:55.582Z,1.20
2022-12-09T09:27:22.514Z,1.30
2022-12-09T09:29:49.601Z,1.30
2022-12-09T09:32:18.831Z,1.40
2022-12-09T09:34:50.644Z,1.50
2022-12-09T09:37:17.716Z,1.60
2022-12-09T09:39:47.942Z,1.70
2022-12-09T09:42:19.747Z,1.80
2022-12-09T09:44:49.392Z,1.80
2022-12-09T09:47:36.227Z,1.90
2022-12-09T09:50:45.535Z,1.90
2022-12-09T09:53:20.212Z,2.00
2022-12-09T09:55:56.910Z,2.10
2022-12-09T09:58:39.028Z,2.10
2022-12-09T10:01:09.549Z,2.10
2022-12-09T10:03:55.026Z,2.10
2022-12-09T10:06:47.790Z,2.10
2022-12-09T10:09:34.003Z,2.10
2022-12-09T10:12:06.521Z,2.20
2022-12-09T10:14:34.058Z,2.30
2022-12-09T10:17:27.190Z,2.30
2022-12-09T10:20:18.979Z,2.30
2022-12-09T10:23:07.151Z,2.40
2022-12-09T10:25:38.441Z,2.50
2022-12-09T10:28:25.524Z,2.50
2022-12-09T10:31:00.054Z,2.50
2022-12-09T10:33:36.093Z,2.50
2022-12-09T10:36:04.169Z,2.60
2022-12-09T10:38:37.728Z,2.70
2022-12-09T10:41:57.124Z,2.70
2022-12-09T10:44:28.344Z,2.70
2022-12-09T10:47:07.970Z,2.80
2022-12-09T10:49:38.542Z,2.90
2022-12-09T10:52:06.374Z,2.90
2022-12-09T10:54:40.149Z,3.00
2022-12-09T10:57:16.339Z,3.10
2022-12-09T11:00:07.029Z,3.20
2022-12-09T11:02:51.484Z,3.40
2022-12-09T11:05:31.905Z,3.50
2022-12-09T11:07:59.634Z,3.60
2022-12-09T11:10:31.482Z,3.50
2022-12-09T11:13:15.259Z,3.50
2022-12-09T11:15:50.335Z,3.50
2022-12-09T11:18:37.435Z,3.50
2022-12-09T11:21:07.818Z,3.50
2022-12-09T11:23:35.968Z,3.60
2022-12-09T11:26:07.065Z,3.70
2022-12-09T11:28:43.336Z,3.70
2022-12-09T11:31:29.414Z,3.90
2022-12-09T11:34:06.468Z,4.00
2022-12-09T11:36:36.936Z,4.10
2022-12-09T11:39:19.606Z,4.10
2022-12-09T11:42:16.951Z,4.00
2022-12-09T11:44:53.484Z,3.90
2022-12-09T11:50:34.060Z,3.90
2022-12-09T11:53:08.819Z,3.90
2022-12-09T11:55:45.702Z,3.90
2022-12-09T11:58:17.462Z,3.90
2022-12-09T12:00:59.084Z,3.90
2022-12-09T12:03:40.710Z,3.90
2022-12-09T12:06:24.336Z,3.90
2022-12-09T12:09:01.054Z,3.90
2022-12-09T12:11:36.056Z,3.80
2022-12-09T12:14:17.465Z,3.80
2022-12-09T12:17:27.247Z,3.80
2022-12-09T12:19:57.545Z,3.90
2022-12-09T12:22:39.412Z,3.90
2022-12-09T12:25:33.904Z,3.90
2022-12-09T12:28:25.577Z,3.80
2022-12-09T12:31:01.636Z,3.80
2022-12-09T12:36:48.420Z,3.70
2022-12-09T12:39:55.781Z,3.60
2022-12-09T12:42:35.547Z,3.60
2022-12-09T12:45:33.052Z,3.60
2022-12-09T12:48:14.510Z,3.50
2022-12-09T12:50:42.272Z,3.50
2022-12-09T12:53:30.047Z,3.50
2022-12-09T12:56:00.037Z,3.50
2022-12-09T12:58:54.150Z,3.60
2022-12-09T13:01:33.565Z,3.50
2022-12-09T13:04:24.229Z,3.40
2022-12-09T13:07:05.187Z,3.40
2022-12-09T13:09:34.970Z,3.40
2022-12-09T13:12:13.899Z,3.40
2022-12-09T13:14:55.611Z,3.50
2022-12-09T13:17:31.362Z,3.50
2022-12-09T13:20:01.248Z,3.40
2022-12-09T13:22:43.961Z,3.40
2022-12-09T13:25:41.432Z,3.30
2022-12-09T13:28:19.262Z,3.30
2022-12-09T13:30:55.451Z,3.30
2022-12-09T13:33:36.301Z,3.30
2022-12-09T13:36:18.230Z,3.30
2022-12-09T13:38:45.029Z,3.30
2022-12-09T13:41:28.796Z,3.30
2022-12-09T13:44:09.417Z,3.20
2022-12-09T13:46:36.513Z,3.20
2022-12-09T13:49:26.804Z,3.20
2022-12-09T13:51:58.922Z,3.30
2022-12-09T13:54:29.472Z,3.20
2022-12-09T13:57:11.013Z,3.20
2022-12-09T13:59:40.558Z,3.20
2022-12-09T14:02:25.497Z,3.10
2022-12-09T14:05:30.213Z,3.10
2022-12-09T14:08:24.879Z,3.20
2022-12-09T14:10:53.154Z,3.20
2022-12-09T14:13:34.898Z,3.20
2022-12-09T14:16:28.909Z,3.20
2022-12-09T14:18:57.287Z,3.20
2022-12-09T14:21:26.661Z,3.20
2022-12-09T14:24:17.763Z,3.10
2022-12-09T14:26:47.827Z,3.20
2022-12-09T14:29:42.254Z,3.20
2022-12-09T14:32:38.130Z,3.20
2022-12-09T14:35:41.393Z,3.20
2022-12-09T14:38:25.557Z,3.20
2022-12-09T14:41:05.898Z,3.20
2022-12-09T14:43:55.714Z,3.20
2022-12-09T14:46:32.921Z,3.20
2022-12-09T14:49:48.595Z,3.20
2022-12-09T14:52:33.173Z,3.20
2022-12-09T14:55:06.905Z,3.10
2022-12-09T14:57:55.014Z,3.20
2022-12-09T15:00:36.077Z,3.10
2022-12-09T15:05:54.838Z,3.00
2022-12-09T15:08:53.814Z,3.00
2022-12-09T15:11:34.265Z,3.00
2022-12-09T15:14:24.972Z,3.00
2022-12-09T15:16:52.345Z,3.00
2022-12-09T15:19:58.611Z,3.00
2022-12-09T15:22:27.992Z,3.00
2022-12-09T15:25:00.647Z,2.90
2022-12-09T15:27:27.399Z,2.90
2022-12-09T15:29:54.882Z,2.90
2022-12-09T15:32:26.708Z,2.90
2022-12-09T15:34:58.822Z,2.90
2022-12-09T15:37:29.960Z,2.80
2022-12-09T15:40:08.611Z,2.80
2022-12-09T15:42:42.263Z,2.80
2022-12-09T15:45:11.812Z,2.80
2022-12-09T15:47:48.769Z,2.90
2022-12-09T15:50:18.292Z,2.90
2022-12-09T15:52:52.771Z,2.90
2022-12-09T15:55:31.519Z,2.90
2022-12-09T15:58:00.660Z,2.90
2022-12-09T16:00:29.948Z,2.80
2022-12-09T16:02:56.993Z,2.80
2022-12-09T16:05:30.954Z,2.70
2022-12-09T16:08:03.908Z,2.70
2022-12-09T16:10:30.914Z,2.70
2022-12-09T16:13:11.490Z,2.70
2022-12-09T16:15:45.080Z,2.70
2022-12-09T16:18:46.790Z,2.70
2022-12-09T16:21:32.905Z,2.70
2022-12-09T16:24:10.140Z,2.60
2022-12-09T16:26:41.954Z,2.60
2022-12-09T16:29:23.045Z,2.60
2022-12-09T16:32:25.617Z,2.60
2022-12-09T16:34:55.661Z,2.60
2022-12-09T16:37:22.395Z,2.60
2022-12-09T16:39:49.280Z,2.50
2022-12-09T16:42:39.292Z,2.50
2022-12-09T16:45:31.920Z,2.50
2022-12-09T16:48:02.609Z,2.60
2022-12-09T16:50:41.757Z,2.60
2022-12-09T16:53:24.514Z,2.70
2022-12-09T16:55:55.788Z,2.60
2022-12-09T16:58:25.232Z,2.60
2022-12-09T17:00:52.442Z,2.70
2022-12-09T17:04:00.611Z,2.60
2022-12-09T17:06:31.474Z,2.60
2022-12-09T17:08:58.364Z,2.50
2022-12-09T17:11:32.327Z,2.50
2022-12-09T17:14:01.158Z,2.50
2022-12-09T17:16:28.478Z,2.50
2022-12-09T17:18:55.425Z,2.40
2022-12-09T17:21:24.355Z,2.40
2022-12-09T17:23:53.276Z,2.40
2022-12-09T17:26:20.770Z,2.40
2022-12-09T17:28:50.697Z,2.40
2022-12-09T17:31:22.914Z,2.40
2022-12-09T17:33:50.110Z,2.40
2022-12-09T17:36:20.479Z,2.40
2022-12-09T17:38:52.123Z,2.40
2022-12-09T17:41:23.646Z,2.40
2022-12-09T17:43:51.104Z,2.40
2022-12-09T17:46:21.486Z,2.40
2022-12-09T17:48:50.447Z,2.40
2022-12-09T17:51:21.963Z,2.40
2022-12-09T17:53:50.432Z,2.40
2022-12-09T17:56:22.281Z,2.40
2022-12-09T17:58:58.980Z,2.50
2022-12-09T18:01:26.205Z,2.50
2022-12-09T18:04:01.344Z,2.50
2022-12-09T18:06:34.794Z,2.50
2022-12-09T18:09:06.586Z,2.40
2022-12-09T18:11:34.134Z,2.40
2022-12-09T18:14:01.432Z,2.40
2022-12-09T18:16:28.613Z,2.40
2022-12-09T18:18:58.129Z,2.30
2022-12-09T18:21:27.000Z,2.30
2022-12-09T18:23:56.075Z,2.30
2022-12-09T18:26:28.591Z,2.20
2022-12-09T18:29:02.953Z,2.20
2022-12-09T18:31:29.902Z,2.30
2022-12-09T18:33:56.727Z,2.30
2022-12-09T18:36:26.828Z,2.40
2022-12-09T18:38:57.955Z,2.40
2022-12-09T18:41:29.405Z,2.40
2022-12-09T18:44:01.094Z,2.40
2022-12-09T18:46:30.402Z,2.40
2022-12-09T18:49:15.952Z,2.40
2022-12-09T18:51:44.759Z,2.40
2022-12-09T18:54:17.195Z,2.40
2022-12-09T18:56:44.431Z,2.40
2022-12-09T18:59:13.833Z,2.40
2022-12-09T19:01:43.402Z,2.30
2022-12-09T19:04:30.904Z,2.30
2022-12-09T19:07:01.779Z,2.30
2022-12-09T19:09:36.391Z,2.30
2022-12-09T19:12:38.349Z,2.30
2022-12-09T19:14:53.977Z,2.30
2022-12-09T19:17:21.762Z,2.30
2022-12-09T19:19:49.374Z,2.30
2022-12-09T19:22:25.761Z,2.30
2022-12-09T19:24:52.534Z,2.30
2022-12-09T19:27:19.348Z,2.30
2022-12-09T19:29:46.009Z,2.30
2022-12-09T19:32:50.982Z,2.30
2022-12-09T19:35:01.615Z,2.30
2022-12-09T19:37:28.435Z,2.30
2022-12-09T19:39:55.150Z,2.30
2022-12-09T19:42:21.810Z,2.30
2022-12-09T19:45:12.127Z,2.30
2022-12-09T19:47:37.942Z,2.30
2022-12-09T19:50:10.496Z,2.30
2022-12-09T19:52:42.446Z,2.40
2022-12-09T19:55:09.530Z,2.40
2022-12-09T19:57:36.479Z,2.30
2022-12-09T20:00:04.170Z,2.30
2022-12-09T20:02:34.260Z,2.30
2022-12-09T20:05:06.459Z,2.40
2022-12-09T20:07:35.522Z,2.30
2022-12-09T20:10:02.394Z,2.30
2022-12-09T20:12:33.874Z,2.30
2022-12-09T20:15:02.872Z,2.30
2022-12-09T20:17:29.596Z,2.30
2022-12-09T20:20:01.378Z,2.30
2022-12-09T20:22:29.781Z,2.30
2022-12-09T20:24:59.077Z,2.30
2022-12-09T20:27:26.169Z,2.20
2022-12-09T20:29:52.945Z,2.30
2022-12-09T20:32:24.608Z,2.30
2022-12-09T20:34:55.610Z,2.30
2022-12-09T20:37:22.765Z,2.30
2022-12-09T20:39:51.865Z,2.30
2022-12-09T20:42:18.625Z,2.30
2022-12-09T20:44:48.225Z,2.30
2022-12-09T20:47:17.273Z,2.30
2022-12-09T20:49:44.087Z,2.30
2022-12-09T20:52:10.983Z,2.30
2022-12-09T20:54:40.590Z,2.30
2022-12-09T20:57:11.958Z,2.30
2022-12-09T20:59:40.916Z,2.30
2022-12-09T21:02:13.841Z,2.20
2022-12-09T21:04:44.024Z,2.30
2022-12-09T21:07:10.813Z,2.20
2022-12-09T21:09:40.404Z,2.20
2022-12-09T21:12:09.311Z,2.20
2022-12-09T21:14:38.315Z,2.20
2022-12-09T21:17:05.258Z,2.20
2022-12-09T21:19:32.559Z,2.20
2022-12-09T21:22:04.489Z,2.20
2022-12-09T21:24:33.870Z,2.10
2022-12-09T21:27:02.797Z,2.10
2022-12-09T21:29:32.522Z,2.30
2022-12-09T21:32:04.373Z,2.30
2022-12-09T21:34:33.612Z,2.30
2022-12-09T21:37:05.117Z,2.20
2022-12-09T21:39:32.226Z,2.20
2022-12-09T21:42:01.115Z,2.20
2022-12-09T21:44:28.319Z,2.30
2022-12-09T21:46:57.289Z,2.30
2022-12-09T21:49:26.396Z,2.30
2022-12-09T21:51:55.265Z,2.30
2022-12-09T21:54:22.246Z,2.20
2022-12-09T21:56:49.147Z,2.20
2022-12-09T21:59:18.751Z,2.20
2022-12-09T22:01:47.711Z,2.10
2022-12-09T22:04:18.546Z,2.20
2022-12-09T22:06:50.677Z,2.10
2022-12-09T22:09:20.614Z,2.10
2022-12-09T22:11:47.485Z,2.10
2022-12-09T22:14:18.937Z,2.10
2022-12-09T22:16:47.892Z,2.10
2022-12-09T22:19:22.965Z,2.10
2022-12-09T22:21:50.189Z,2.10
2022-12-09T22:24:18.120Z,2.00
2022-12-09T22:26:45.574Z,2.00
2022-12-09T22:29:14.421Z,1.90
2022-12-09T22:31:46.380Z,1.90
2022-12-09T22:34:14.550Z,2.00
2022-12-09T22:36:52.694Z,2.00
2022-12-09T22:39:25.896Z,2.00
2022-12-09T22:41:54.930Z,2.00
2022-12-09T22:44:21.744Z,2.00
2022-12-09T22:46:51.134Z,2.00
2022-12-09T22:49:18.218Z,2.00
2022-12-09T22:51:45.955Z,2.10
2022-12-09T22:54:15.265Z,2.10
2022-12-09T22:56:42.855Z,2.10
2022-12-09T22:59:10.063Z,2.10
2022-12-09T23:01:39.296Z,2.10
2022-12-09T23:04:08.356Z,2.10
2022-12-09T23:06:38.715Z,2.10
2022-12-09T23:09:07.243Z,2.20
2022-12-09T23:11:39.311Z,2.10
2022-12-09T23:14:05.956Z,2.20
2022-12-09T23:16:35.433Z,2.20
2022-12-09T23:19:06.950Z,2.30
2022-12-09T23:21:36.088Z,2.20
2022-12-09T23:24:06.876Z,2.30
2022-12-09T23:26:36.978Z,2.30
2022-12-09T23:29:05.424Z,2.30
2022-12-09T23:31:39.090Z,2.20
2022-12-09T23:34:09.660Z,2.30
2022-12-09T23:36:41.100Z,2.30
2022-12-09T23:39:11.074Z,2.30
2022-12-09T23:41:46.947Z,2.30
2022-12-09T23:44:16.794Z,2.30
2022-12-09T23:46:44.278Z,2.30
2022-12-09T23:49:22.746Z,2.30
2022-12-09T23:52:16.634Z,2.30
2022-12-09T23:54:43.464Z,2.20
2022-12-09T23:57:10.210Z,2.20
2022-12-09T23:59:37.058Z,2.20
